Time;durP1;ratioP1;P1;durP2;ratioP2;P2;SDS_P1;SDS_P2;PMS_P1;PMS_P2;Temp;Humidity;BMP_temperature;BMP_pressure;BME280_temperature;BME280_humidity;BME280_pressure;Samples;Min_cycle;Max_cycle;Signal;HPM_P1;HPM_P2
2020/12/29 00:00:52;;;;;;;27.25;16.13;;;2.60;94.80;;;;;;5026451;28;20382;-79
2020/12/29 00:03:19;;;;;;;25.95;15.32;;;2.60;94.80;;;;;;5025523;28;20080;-84
2020/12/29 00:05:46;;;;;;;26.52;15.95;;;2.60;94.80;;;;;;5026270;28;20053;-81
2020/12/29 00:08:13;;;;;;;26.40;15.68;;;2.60;94.80;;;;;;5025240;28;20100;-84
2020/12/29 00:10:39;;;;;;;28.35;15.95;;;2.60;94.80;;;;;;5042797;28;20045;-85
2020/12/29 00:13:06;;;;;;;29.67;16.15;;;2.70;95.10;;;;;;5024434;28;20049;-85
2020/12/29 00:15:32;;;;;;;22.10;14.60;;;2.70;94.80;;;;;;5026492;28;20048;-86
2020/12/29 00:17:58;;;;;;;24.45;14.85;;;2.70;94.80;;;;;;5019905;28;20038;-84
2020/12/29 00:20:24;;;;;;;27.02;15.85;;;2.70;94.80;;;;;;5033827;28;20133;-84
2020/12/29 00:22:50;;;;;;;19.60;13.18;;;2.60;94.80;;;;;;5024116;28;20132;-84
2020/12/29 00:25:19;;;;;;;27.50;15.38;;;2.70;94.80;;;;;;5024451;28;20672;-85
2020/12/29 00:27:45;;;;;;;25.30;15.80;;;2.70;94.90;;;;;;5032255;28;20536;-81
2020/12/29 00:30:11;;;;;;;26.00;15.43;;;2.70;94.80;;;;;;5025587;28;20049;-84
2020/12/29 00:32:37;;;;;;;30.05;16.63;;;2.70;94.80;;;;;;5025809;28;20065;-84
2020/12/29 00:35:04;;;;;;;27.27;15.30;;;2.70;94.80;;;;;;5022644;28;20045;-85
2020/12/29 00:37:29;;;;;;;29.40;16.92;;;2.70;94.80;;;;;;5027406;28;20458;-85
2020/12/29 00:39:55;;;;;;;29.90;17.52;;;2.70;94.80;;;;;;5028038;28;20076;-85
2020/12/29 00:42:22;;;;;;;26.25;16.13;;;2.70;94.80;;;;;;5025249;28;20129;-84
2020/12/29 00:44:48;;;;;;;32.95;17.83;;;2.70;94.80;;;;;;5024675;28;20149;-81
2020/12/29 00:47:14;;;;;;;29.40;16.85;;;2.70;94.90;;;;;;5027395;28;20723;-85
2020/12/29 00:49:40;;;;;;;25.45;16.15;;;2.70;94.90;;;;;;5025165;28;20060;-85
2020/12/29 00:52:08;;;;;;;22.85;14.82;;;2.70;94.90;;;;;;5023129;28;20678;-85
2020/12/29 00:54:33;;;;;;;28.42;16.75;;;2.70;94.90;;;;;;5025310;28;20505;-84
2020/12/29 00:57:00;;;;;;;27.35;16.33;;;2.70;94.90;;;;;;5025876;28;20073;-84
2020/12/29 00:59:26;;;;;;;23.70;15.15;;;2.70;94.90;;;;;;5026548;28;20076;-84
2020/12/29 01:01:57;;;;;;;24.42;15.35;;;2.70;95.00;;;;;;5024547;28;20056;-84
2020/12/29 01:04:24;;;;;;;27.67;16.38;;;2.70;95.10;;;;;;5029644;28;20076;-84
2020/12/29 01:06:50;;;;;;;35.72;16.88;;;2.70;95.20;;;;;;5028642;28;20115;-81
2020/12/29 01:09:16;;;;;;;34.35;17.05;;;2.70;95.20;;;;;;5029446;28;20057;-84
2020/12/29 01:11:42;;;;;;;32.97;17.13;;;2.70;95.10;;;;;;5028110;28;20049;-85
2020/12/29 01:14:08;;;;;;;30.52;16.40;;;2.70;95.10;;;;;;5028672;28;20077;-85
2020/12/29 01:16:34;;;;;;;25.27;15.32;;;2.70;95.10;;;;;;5027466;28;20134;-85
2020/12/29 01:19:00;;;;;;;26.00;15.75;;;2.70;95.30;;;;;;5026775;28;20041;-85
2020/12/29 01:21:25;;;;;;;28.27;16.48;;;2.70;95.30;;;;;;5025785;28;20124;-84
2020/12/29 01:23:51;;;;;;;32.50;16.95;;;2.70;95.20;;;;;;5028955;28;20041;-83
2020/12/29 01:26:24;;;;;;;28.45;15.82;;;2.70;95.20;;;;;;5028852;28;20058;-82
2020/12/29 01:28:50;;;;;;;34.65;16.83;;;2.70;95.10;;;;;;5026550;28;20049;-82
2020/12/29 01:31:30;;;;;;;32.35;18.05;;;2.70;95.10;;;;;;5029356;28;20046;-85
2020/12/29 01:33:58;;;;;;;28.02;15.85;;;2.70;95.10;;;;;;5017897;28;20041;-85
2020/12/29 01:36:25;;;;;;;27.73;16.55;;;2.70;95.20;;;;;;5026480;28;20045;-85
2020/12/29 01:38:51;;;;;;;26.90;15.68;;;2.70;95.10;;;;;;5028265;28;20073;-81
2020/12/29 01:41:24;;;;;;;34.83;17.27;;;2.70;95.20;;;;;;5018898;28;20056;-82
2020/12/29 01:43:50;;;;;;;35.40;17.10;;;2.70;95.20;;;;;;5024225;28;22224;-81
2020/12/29 01:46:16;;;;;;;29.33;16.70;;;2.70;95.20;;;;;;5038583;28;20042;-83
2020/12/29 01:48:42;;;;;;;32.63;17.58;;;2.70;95.30;;;;;;5029371;28;20044;-84
2020/12/29 01:51:08;;;;;;;30.20;16.00;;;2.70;95.20;;;;;;5028450;28;20045;-84
2020/12/29 01:53:38;;;;;;;31.15;16.45;;;2.70;95.20;;;;;;5029399;28;20124;-85
2020/12/29 01:56:08;;;;;;;24.27;15.20;;;2.70;95.30;;;;;;5029714;28;20508;-85
2020/12/29 01:58:37;;;;;;;22.98;14.43;;;2.70;95.30;;;;;;5028775;28;20111;-85
2020/12/29 02:01:03;;;;;;;29.85;15.63;;;2.70;95.30;;;;;;5027559;28;20041;-85
2020/12/29 02:03:29;;;;;;;27.25;15.38;;;2.70;95.40;;;;;;5027530;28;20076;-85
2020/12/29 02:05:55;;;;;;;27.48;14.95;;;2.70;95.30;;;;;;5030029;28;20069;-84
2020/12/29 02:08:21;;;;;;;26.80;15.88;;;2.70;95.30;;;;;;5027459;28;20049;-84
2020/12/29 02:10:51;;;;;;;28.17;15.20;;;2.80;95.30;;;;;;5029016;28;20045;-84
2020/12/29 02:13:17;;;;;;;31.52;16.55;;;2.80;95.30;;;;;;5028404;28;20045;-84
2020/12/29 02:15:43;;;;;;;31.98;16.30;;;2.80;95.30;;;;;;5028426;28;20103;-85
2020/12/29 02:18:08;;;;;;;23.13;14.27;;;2.80;95.40;;;;;;5028306;28;20052;-84
2020/12/29 02:20:34;;;;;;;24.20;13.90;;;2.80;95.30;;;;;;5027307;28;20041;-85
2020/12/29 02:23:00;;;;;;;24.48;13.77;;;2.80;95.30;;;;;;5026928;28;20071;-84
2020/12/29 02:25:26;;;;;;;25.63;13.63;;;2.90;95.30;;;;;;5029609;28;20053;-84
2020/12/29 02:27:52;;;;;;;28.05;14.90;;;2.90;95.30;;;;;;5026242;28;20489;-81
2020/12/29 02:30:19;;;;;;;22.15;13.52;;;2.90;95.30;;;;;;5027560;28;20041;-81
2020/12/29 02:32:45;;;;;;;24.38;14.35;;;3.00;95.40;;;;;;5027307;28;20069;-85
2020/12/29 02:35:15;;;;;;;26.90;15.13;;;3.00;95.30;;;;;;5025944;28;20188;-85
2020/12/29 02:37:41;;;;;;;19.70;12.57;;;3.00;95.30;;;;;;5028034;28;20517;-84
2020/12/29 02:40:06;;;;;;;22.88;13.23;;;3.00;95.30;;;;;;5040522;28;20160;-84
2020/12/29 02:42:32;;;;;;;21.05;12.68;;;3.00;95.40;;;;;;5029329;28;20056;-84
2020/12/29 02:44:58;;;;;;;20.08;12.10;;;3.00;95.40;;;;;;5026699;28;20037;-85
2020/12/29 02:47:24;;;;;;;17.98;11.73;;;3.00;95.40;;;;;;5028500;28;20038;-84
2020/12/29 02:49:50;;;;;;;17.10;10.35;;;3.00;95.40;;;;;;5028384;28;20055;-85
2020/12/29 02:52:16;;;;;;;16.15;9.88;;;3.10;95.40;;;;;;5027607;28;20448;-85
2020/12/29 02:54:41;;;;;;;13.00;8.15;;;3.10;95.40;;;;;;5026793;28;20045;-85
2020/12/29 02:57:07;;;;;;;13.65;8.60;;;3.10;95.30;;;;;;5028710;28;20129;-85
2020/12/29 02:59:33;;;;;;;13.25;9.13;;;3.10;95.30;;;;;;5026649;28;20057;-81
2020/12/29 03:01:59;;;;;;;15.60;9.48;;;3.10;95.30;;;;;;5026885;28;20060;-83
2020/12/29 03:04:25;;;;;;;13.27;9.32;;;3.10;95.30;;;;;;5028928;28;20099;-83
2020/12/29 03:06:51;;;;;;;13.77;8.65;;;3.10;95.30;;;;;;5042078;28;20060;-84
2020/12/29 03:09:17;;;;;;;12.00;8.05;;;3.10;95.30;;;;;;5027699;28;20041;-85
2020/12/29 03:11:44;;;;;;;12.57;8.55;;;3.10;95.30;;;;;;5027716;28;20068;-85
2020/12/29 03:14:11;;;;;;;12.20;7.68;;;3.20;95.30;;;;;;5027762;28;20038;-85
2020/12/29 03:16:37;;;;;;;9.63;6.63;;;3.10;95.30;;;;;;5026280;28;20087;-84
2020/12/29 03:19:03;;;;;;;9.32;6.40;;;3.10;95.30;;;;;;5027885;28;20049;-85
2020/12/29 03:21:29;;;;;;;11.93;7.70;;;3.10;95.20;;;;;;5028472;28;20508;-85
2020/12/29 03:23:55;;;;;;;11.23;7.43;;;3.20;95.30;;;;;;5026128;28;20056;-82
2020/12/29 03:26:21;;;;;;;10.02;7.03;;;3.10;95.20;;;;;;5027319;28;20060;-84
2020/12/29 03:28:47;;;;;;;14.70;8.23;;;3.10;95.20;;;;;;5026599;28;20075;-85
2020/12/29 03:31:15;;;;;;;15.35;9.48;;;3.20;95.20;;;;;;5027985;28;20049;-84
2020/12/29 03:33:42;;;;;;;18.42;11.10;;;3.20;95.20;;;;;;5041881;28;20579;-83
2020/12/29 03:36:07;;;;;;;20.20;12.15;;;3.20;95.20;;;;;;5024301;28;20480;-84
2020/12/29 03:38:33;;;;;;;21.85;13.32;;;3.20;95.20;;;;;;5027240;28;20037;-82
2020/12/29 03:40:59;;;;;;;22.40;13.88;;;3.10;95.30;;;;;;5026659;28;20107;-84
2020/12/29 03:43:25;;;;;;;23.48;14.02;;;3.20;95.40;;;;;;5027847;28;20056;-84
2020/12/29 03:45:51;;;;;;;27.50;15.55;;;3.20;95.40;;;;;;5025398;28;20342;-84
2020/12/29 03:48:21;;;;;;;26.60;15.95;;;3.20;95.40;;;;;;5030263;28;20069;-83
2020/12/29 03:50:48;;;;;;;26.50;16.17;;;3.20;95.40;;;;;;5026235;28;20049;-84
2020/12/29 03:53:14;;;;;;;26.33;16.15;;;3.10;95.40;;;;;;5028126;28;20054;-85
2020/12/29 03:55:40;;;;;;;29.27;15.98;;;3.10;95.50;;;;;;5021877;28;20512;-84
2020/12/29 03:58:06;;;;;;;26.48;15.45;;;3.10;95.50;;;;;;5027437;28;20049;-84
2020/12/29 04:00:34;;;;;;;26.70;15.48;;;3.20;95.60;;;;;;5026065;28;20059;-82
2020/12/29 04:03:00;;;;;;;39.90;17.67;;;3.20;95.60;;;;;;5025411;28;20049;-84
2020/12/29 04:05:26;;;;;;;27.13;16.08;;;3.10;95.60;;;;;;5028108;28;20041;-83
2020/12/29 04:07:52;;;;;;;28.48;15.60;;;3.20;95.60;;;;;;5027110;28;20053;-85
2020/12/29 04:10:18;;;;;;;29.38;16.23;;;3.20;95.60;;;;;;5027085;28;20041;-83
2020/12/29 04:12:44;;;;;;;27.50;15.77;;;3.20;95.60;;;;;;5027388;28;20073;-85
2020/12/29 04:15:10;;;;;;;19.88;13.10;;;3.20;95.60;;;;;;5027104;28;20134;-85
2020/12/29 04:17:38;;;;;;;20.33;13.30;;;3.20;95.60;;;;;;5041059;28;20037;-81
2020/12/29 04:20:06;;;;;;;23.20;14.07;;;3.20;95.60;;;;;;5026876;28;20493;-85
2020/12/29 04:22:37;;;;;;;21.63;14.20;;;3.20;95.60;;;;;;5025725;28;20041;-84
2020/12/29 04:25:05;;;;;;;21.15;13.38;;;3.20;95.60;;;;;;5025318;28;20038;-84
2020/12/29 04:27:30;;;;;;;23.23;14.55;;;3.20;95.60;;;;;;5042756;28;20052;-84
2020/12/29 04:29:56;;;;;;;25.48;14.95;;;3.20;95.60;;;;;;5025339;28;20624;-84
2020/12/29 04:32:22;;;;;;;22.73;14.45;;;3.20;95.60;;;;;;5026749;28;20045;-85
2020/12/29 04:34:48;;;;;;;20.73;13.85;;;3.20;95.60;;;;;;5024659;28;20041;-84
2020/12/29 04:37:14;;;;;;;17.33;12.20;;;3.20;95.50;;;;;;5029277;28;20054;-85
2020/12/29 04:39:41;;;;;;;17.92;12.05;;;3.20;95.50;;;;;;5034948;28;20381;-84
2020/12/29 04:42:11;;;;;;;15.40;11.35;;;3.20;95.40;;;;;;5029083;28;20637;-85
2020/12/29 04:44:39;;;;;;;16.33;11.35;;;3.20;95.40;;;;;;5030135;28;20136;-81
2020/12/29 04:47:07;;;;;;;15.05;11.23;;;3.20;95.30;;;;;;5027651;28;20052;-85
2020/12/29 04:49:34;;;;;;;17.25;11.93;;;3.20;95.30;;;;;;5030875;28;20053;-85
2020/12/29 04:52:03;;;;;;;16.95;11.88;;;3.10;95.30;;;;;;5030148;28;20052;-85
2020/12/29 04:54:35;;;;;;;15.30;11.05;;;3.20;95.30;;;;;;5030476;28;20048;-85
2020/12/29 04:57:03;;;;;;;17.05;11.77;;;3.20;95.30;;;;;;5030120;28;20041;-84
2020/12/29 04:59:29;;;;;;;17.88;12.15;;;3.20;95.30;;;;;;5031546;28;20048;-83
2020/12/29 05:01:58;;;;;;;16.65;12.05;;;3.20;95.30;;;;;;5027177;28;20094;-85
2020/12/29 05:04:24;;;;;;;13.88;10.93;;;3.20;95.20;;;;;;5028734;28;20077;-85
2020/12/29 05:06:51;;;;;;;16.15;12.32;;;3.20;95.20;;;;;;5030111;28;20524;-85
2020/12/29 05:09:21;;;;;;;15.20;11.68;;;3.20;95.00;;;;;;5029746;28;20045;-85
2020/12/29 05:11:47;;;;;;;16.40;12.60;;;3.20;95.00;;;;;;5030483;28;20053;-84
2020/12/29 05:14:13;;;;;;;15.55;12.00;;;3.10;94.90;;;;;;5029841;28;20478;-85
2020/12/29 05:16:40;;;;;;;14.52;11.10;;;3.10;94.80;;;;;;5028301;28;20052;-83
2020/12/29 05:19:09;;;;;;;14.27;10.93;;;3.10;94.70;;;;;;5030525;28;20049;-83
2020/12/29 05:21:37;;;;;;;16.35;11.95;;;3.10;94.60;;;;;;5030703;28;20045;-81
2020/12/29 05:24:11;;;;;;;16.02;12.45;;;3.00;94.60;;;;;;5028565;28;20077;-84
2020/12/29 05:26:38;;;;;;;18.20;12.15;;;3.00;94.60;;;;;;5017670;28;20037;-81
2020/12/29 05:29:05;;;;;;;15.98;12.18;;;3.00;94.60;;;;;;5030016;28;20049;-84
2020/12/29 05:31:36;;;;;;;20.35;12.95;;;3.00;94.90;;;;;;5028411;28;20544;-84
2020/12/29 05:34:03;;;;;;;19.42;13.18;;;3.00;94.60;;;;;;5027359;28;20120;-83
2020/12/29 05:36:33;;;;;;;20.70;12.32;;;3.00;94.70;;;;;;5042804;28;20065;-84
2020/12/29 05:39:09;;;;;;;19.35;12.50;;;3.00;94.70;;;;;;5043273;28;20053;-84
2020/12/29 05:41:43;;;;;;;19.02;12.48;;;3.00;94.70;;;;;;5028483;28;20045;-83
2020/12/29 05:44:10;;;;;;;16.80;12.63;;;3.00;94.70;;;;;;5014898;28;20083;-83
2020/12/29 05:46:36;;;;;;;17.63;12.68;;;2.90;94.70;;;;;;5028118;28;20049;-81
2020/12/29 05:49:03;;;;;;;19.50;13.30;;;2.90;94.80;;;;;;5027329;28;20398;-83
2020/12/29 05:51:29;;;;;;;18.05;13.18;;;2.90;94.80;;;;;;5044120;28;20120;-83
2020/12/29 05:54:03;;;;;;;17.98;12.85;;;2.90;94.80;;;;;;5028762;28;20620;-83
2020/12/29 05:56:33;;;;;;;18.88;12.52;;;2.90;94.80;;;;;;5043531;28;20033;-83
2020/12/29 05:59:02;;;;;;;18.75;13.15;;;2.90;94.80;;;;;;5029740;28;20037;-84
2020/12/29 06:01:42;;;;;;;20.40;13.30;;;3.00;94.80;;;;;;5028167;28;20053;-85
2020/12/29 06:04:09;;;;;;;21.10;13.50;;;3.00;94.90;;;;;;5026443;28;20418;-85
2020/12/29 06:06:37;;;;;;;20.25;13.43;;;3.00;94.90;;;;;;5042779;28;20049;-87
2020/12/29 06:09:15;;;;;;;22.90;13.68;;;3.00;94.90;;;;;;5029193;28;20037;-86
2020/12/29 06:11:47;;;;;;;19.27;13.07;;;3.00;94.90;;;;;;5027227;28;20050;-86
2020/12/29 06:14:16;;;;;;;22.90;13.45;;;3.00;94.90;;;;;;5028942;28;20053;-86
2020/12/29 06:16:43;;;;;;;22.25;14.20;;;3.00;94.90;;;;;;5028477;28;20496;-85
2020/12/29 06:19:21;;;;;;;18.88;12.52;;;2.90;94.80;;;;;;5028043;28;20056;-86
2020/12/29 06:22:04;;;;;;;19.90;12.90;;;2.90;94.90;;;;;;5026172;28;20042;-86
2020/12/29 06:24:31;;;;;;;24.95;13.93;;;2.90;94.80;;;;;;5019348;28;20493;-86
2020/12/29 06:27:02;;;;;;;21.48;13.98;;;2.90;94.90;;;;;;5025739;28;20061;-87
2020/12/29 06:29:32;;;;;;;22.08;14.25;;;2.90;94.90;;;;;;5027803;28;20042;-86
2020/12/29 06:32:22;;;;;;;25.33;14.45;;;2.90;94.90;;;;;;5028576;28;20053;-85
2020/12/29 06:34:48;;;;;;;22.23;13.55;;;2.90;94.90;;;;;;5025180;28;20172;-86
2020/12/29 06:37:27;;;;;;;19.67;13.23;;;2.90;95.00;;;;;;5028199;28;20131;-86
2020/12/29 06:40:04;;;;;;;26.65;14.38;;;2.90;95.00;;;;;;5030071;28;20048;-86
2020/12/29 06:42:31;;;;;;;19.77;12.95;;;2.90;95.00;;;;;;5025954;28;20425;-86
2020/12/29 06:44:58;;;;;;;23.58;13.65;;;2.90;95.00;;;;;;5028665;28;20052;-86
2020/12/29 06:47:28;;;;;;;21.98;13.27;;;2.90;95.30;;;;;;5027471;28;20397;-84
2020/12/29 06:49:54;;;;;;;23.13;13.15;;;2.90;95.00;;;;;;5026625;28;20605;-86
2020/12/29 06:52:33;;;;;;;18.90;12.82;;;2.80;95.00;;;;;;5029898;28;20046;-85
2020/12/29 06:55:00;;;;;;;18.77;12.65;;;2.80;95.00;;;;;;5026708;28;20049;-86
2020/12/29 06:57:35;;;;;;;22.00;13.75;;;2.80;95.00;;;;;;5026799;28;20722;-85
2020/12/29 07:00:01;;;;;;;20.10;13.32;;;2.80;95.00;;;;;;5025493;28;20053;-86
2020/12/29 07:02:36;;;;;;;21.60;13.20;;;2.80;95.00;;;;;;5025093;28;20053;-86
2020/12/29 07:05:13;;;;;;;16.70;12.20;;;2.80;95.00;;;;;;5025284;28;20053;-86
2020/12/29 07:08:05;;;;;;;20.40;12.25;;;2.80;95.00;;;;;;5026906;28;20057;-82
2020/12/29 07:10:37;;;;;;;20.98;12.57;;;2.90;95.00;;;;;;5003060;28;20493;-86
2020/12/29 07:13:17;;;;;;;17.70;12.10;;;2.80;95.00;;;;;;5026748;28;20560;-86
2020/12/29 07:15:47;;;;;;;17.85;11.65;;;2.80;95.10;;;;;;5040945;28;20041;-83
2020/12/29 07:18:20;;;;;;;19.23;12.60;;;2.80;95.10;;;;;;5041688;28;20119;-85
2020/12/29 07:20:48;;;;;;;16.95;11.32;;;2.80;95.10;;;;;;5028291;28;20091;-86
2020/12/29 07:23:18;;;;;;;15.27;10.45;;;2.80;95.10;;;;;;5027220;28;20061;-86
2020/12/29 07:25:57;;;;;;;12.13;9.38;;;2.80;95.20;;;;;;5024963;28;20073;-83
2020/12/29 07:28:24;;;;;;;13.85;9.35;;;2.80;95.10;;;;;;5027207;28;20462;-86
2020/12/29 07:30:51;;;;;;;16.00;10.52;;;2.80;95.10;;;;;;5026379;28;20045;-85
2020/12/29 07:33:22;;;;;;;14.07;9.57;;;2.80;95.20;;;;;;5027638;28;20430;-86
2020/12/29 07:35:49;;;;;;;14.73;9.43;;;2.80;95.20;;;;;;5024781;28;20126;-86
2020/12/29 07:38:19;;;;;;;14.85;10.30;;;2.80;95.20;;;;;;5032417;28;20071;-85
2020/12/29 07:40:44;;;;;;;12.50;9.38;;;2.80;95.20;;;;;;5032855;28;20862;-84
2020/12/29 07:43:10;;;;;;;12.93;8.80;;;2.80;95.20;;;;;;5027526;28;20053;-85
2020/12/29 07:45:37;;;;;;;12.55;8.68;;;2.80;95.20;;;;;;5027034;28;20477;-86
2020/12/29 07:48:04;;;;;;;10.43;7.03;;;2.90;95.20;;;;;;5025571;28;20099;-87
2020/12/29 07:50:31;;;;;;;10.57;7.85;;;2.90;95.10;;;;;;5042919;28;20057;-86
2020/12/29 07:53:03;;;;;;;9.80;6.82;;;2.90;94.90;;;;;;5038105;28;20050;-87
2020/12/29 07:55:29;;;;;;;9.48;6.63;;;2.90;94.90;;;;;;5025912;28;20115;-86
2020/12/29 07:57:56;;;;;;;9.18;6.35;;;2.90;94.80;;;;;;5024634;28;20496;-87
2020/12/29 08:00:22;;;;;;;9.02;6.18;;;2.80;94.70;;;;;;5027402;28;20053;-85
2020/12/29 08:02:50;;;;;;;7.45;5.22;;;2.80;94.80;;;;;;5028012;28;20045;-86
2020/12/29 08:05:20;;;;;;;11.77;7.22;;;2.80;94.60;;;;;;5043723;28;20512;-86
2020/12/29 08:08:13;;;;;;;9.38;6.65;;;2.70;94.50;;;;;;5030394;28;20104;-85
2020/12/29 08:10:47;;;;;;;7.38;5.68;;;2.70;94.70;;;;;;5022263;28;20054;-87
2020/12/29 08:13:17;;;;;;;9.88;6.40;;;2.70;94.70;;;;;;5023893;28;20058;-86
2020/12/29 08:15:44;;;;;;;7.50;5.72;;;2.70;94.70;;;;;;5041551;28;20445;-82
2020/12/29 08:18:18;;;;;;;7.80;6.28;;;2.70;94.70;;;;;;5026226;28;20049;-86
2020/12/29 08:20:48;;;;;;;6.85;5.47;;;2.60;94.70;;;;;;5040579;28;20128;-82
2020/12/29 08:23:15;;;;;;;10.32;7.15;;;2.60;94.70;;;;;;5027244;28;20128;-86
2020/12/29 08:25:48;;;;;;;7.45;5.40;;;2.60;94.70;;;;;;5026124;28;20061;-83
2020/12/29 08:28:13;;;;;;;7.93;6.07;;;2.50;94.60;;;;;;5026054;28;20128;-86
2020/12/29 08:30:40;;;;;;;10.20;6.68;;;2.50;94.60;;;;;;5027220;28;20080;-86
2020/12/29 08:33:06;;;;;;;8.68;5.82;;;2.50;94.70;;;;;;5025435;28;20225;-87
2020/12/29 08:35:42;;;;;;;8.90;6.28;;;2.40;94.70;;;;;;5033211;28;20466;-86
2020/12/29 08:38:26;;;;;;;7.40;5.97;;;2.40;94.60;;;;;;5026841;28;20052;-86
2020/12/29 08:41:16;;;;;;;7.82;6.05;;;2.40;94.60;;;;;;5026155;28;20072;-85
2020/12/29 08:43:43;;;;;;;7.85;6.15;;;2.40;94.70;;;;;;5020595;28;20046;-83
2020/12/29 08:46:10;;;;;;;7.18;5.60;;;2.30;94.80;;;;;;5022978;28;20387;-85
2020/12/29 08:48:37;;;;;;;8.88;6.80;;;2.40;94.80;;;;;;5042252;28;20056;-86
2020/12/29 08:51:25;;;;;;;8.80;6.57;;;2.40;94.80;;;;;;5024303;28;20670;-86
2020/12/29 08:54:05;;;;;;;9.45;6.70;;;2.40;94.80;;;;;;5025010;28;20065;-86
2020/12/29 08:56:30;;;;;;;8.48;6.20;;;2.30;94.90;;;;;;5024318;28;20478;-85
2020/12/29 08:58:56;;;;;;;7.75;6.10;;;2.30;94.90;;;;;;5026192;28;20049;-86
2020/12/29 09:01:42;;;;;;;7.97;6.03;;;2.30;94.90;;;;;;5026099;28;20041;-86
2020/12/29 09:04:26;;;;;;;;;;;2.30;94.90;;;;;;5037621;28;20497;-85
2020/12/29 09:07:10;;;;;;;8.43;6.38;;;2.30;94.90;;;;;;5017935;28;19927;-86
2020/12/29 09:09:35;;;;;;;8.65;6.68;;;2.30;94.90;;;;;;5027178;28;20448;-86
2020/12/29 09:12:15;;;;;;;10.38;7.25;;;2.40;95.00;;;;;;5025414;28;20119;-87
2020/12/29 09:14:57;;;;;;;11.75;7.18;;;2.40;95.00;;;;;;5025155;28;20485;-85
2020/12/29 09:17:25;;;;;;;9.82;6.60;;;2.40;95.00;;;;;;5024133;28;20060;-86
2020/12/29 09:20:10;;;;;;;10.52;6.93;;;2.40;95.10;;;;;;5026456;28;20045;-85
2020/12/29 09:23:08;;;;;;;7.60;5.45;;;2.40;95.00;;;;;;5025619;28;20045;-85
2020/12/29 09:25:35;;;;;;;7.75;6.03;;;2.40;95.00;;;;;;5019021;28;20115;-84
2020/12/29 09:28:24;;;;;;;9.60;6.78;;;2.50;95.00;;;;;;5030676;28;20096;-85
2020/12/29 09:30:58;;;;;;;9.60;6.97;;;2.50;95.00;;;;;;5027498;28;20057;-84
2020/12/29 09:33:25;;;;;;;9.75;7.03;;;2.50;95.00;;;;;;5028735;28;20053;-84
2020/12/29 09:35:51;;;;;;;9.13;7.10;;;2.50;95.30;;;;;;5026978;28;20041;-84
2020/12/29 09:38:17;;;;;;;9.68;6.60;;;2.50;95.10;;;;;;5035555;28;20045;-84
2020/12/29 09:40:45;;;;;;;9.48;7.05;;;2.50;95.10;;;;;;5035213;28;20087;-85
2020/12/29 09:43:12;;;;;;;8.85;6.45;;;2.60;95.10;;;;;;5044189;28;20128;-83
2020/12/29 09:45:37;;;;;;;8.18;6.22;;;2.60;95.10;;;;;;5029834;28;20052;-85
2020/12/29 09:48:03;;;;;;;8.98;7.03;;;2.60;95.00;;;;;;5027848;28;20049;-85
2020/12/29 09:50:29;;;;;;;9.23;6.70;;;2.60;95.00;;;;;;5028163;28;20516;-83
2020/12/29 09:52:55;;;;;;;7.47;5.75;;;2.60;95.10;;;;;;5029496;28;20049;-83
2020/12/29 09:55:21;;;;;;;7.13;5.43;;;2.60;95.10;;;;;;5029302;28;20058;-82
2020/12/29 09:57:47;;;;;;;8.10;5.68;;;2.60;95.10;;;;;;5045840;28;20613;-82
2020/12/29 10:00:12;;;;;;;6.57;4.95;;;2.60;95.10;;;;;;5028293;28;20585;-84
2020/12/29 10:02:38;;;;;;;7.03;5.20;;;2.60;95.10;;;;;;5027747;28;20052;-84
2020/12/29 10:05:04;;;;;;;8.05;5.47;;;2.60;95.00;;;;;;5027609;28;20129;-84
2020/12/29 10:07:30;;;;;;;7.28;5.65;;;2.70;95.10;;;;;;5028359;28;20541;-82
2020/12/29 10:09:56;;;;;;;8.63;6.20;;;2.70;95.10;;;;;;5038797;28;20049;-82
2020/12/29 10:12:22;;;;;;;7.90;6.15;;;2.60;95.10;;;;;;5045443;28;20045;-81
2020/12/29 10:14:48;;;;;;;7.63;6.00;;;2.70;95.10;;;;;;5027666;28;20053;-81
2020/12/29 10:17:14;;;;;;;7.65;6.20;;;2.70;95.10;;;;;;5027983;28;20073;-83
2020/12/29 10:19:39;;;;;;;9.13;6.10;;;2.70;95.00;;;;;;5042483;28;20393;-81
2020/12/29 10:22:05;;;;;;;9.48;6.30;;;2.70;95.00;;;;;;5026388;28;20049;-81
2020/12/29 10:24:31;;;;;;;9.25;6.72;;;2.70;95.00;;;;;;5028091;28;20489;-85
2020/12/29 10:26:57;;;;;;;8.77;6.90;;;2.70;95.10;;;;;;5039313;28;20041;-84
2020/12/29 10:29:24;;;;;;;9.60;7.00;;;2.70;95.10;;;;;;5029242;28;20485;-86
2020/12/29 10:31:50;;;;;;;9.32;6.65;;;2.70;95.20;;;;;;5043591;28;20046;-81
2020/12/29 10:34:17;;;;;;;7.47;5.40;;;2.70;95.20;;;;;;5028245;28;20064;-82
2020/12/29 10:36:44;;;;;;;7.45;5.57;;;2.80;95.20;;;;;;5041798;28;20485;-81
2020/12/29 10:39:10;;;;;;;8.27;6.40;;;2.80;95.20;;;;;;5040209;28;20305;-82
2020/12/29 10:41:38;;;;;;;8.27;6.50;;;2.80;95.20;;;;;;5019694;28;20532;-82
2020/12/29 10:44:05;;;;;;;7.47;5.72;;;2.80;95.20;;;;;;5027437;28;20049;-82
2020/12/29 10:46:31;;;;;;;6.75;5.22;;;2.80;95.20;;;;;;5027922;28;20470;-82
2020/12/29 10:48:57;;;;;;;9.45;6.20;;;2.80;95.10;;;;;;5026340;28;20072;-81
2020/12/29 10:51:24;;;;;;;7.97;5.65;;;2.80;95.10;;;;;;5027241;28;20497;-83
2020/12/29 10:53:51;;;;;;;8.02;6.18;;;2.80;95.10;;;;;;5029043;28;20533;-82
2020/12/29 10:56:18;;;;;;;6.53;4.97;;;2.80;95.20;;;;;;5027992;28;20414;-82
2020/12/29 10:58:44;;;;;;;6.63;5.30;;;2.90;95.20;;;;;;5027385;28;20115;-82
2020/12/29 11:01:11;;;;;;;7.45;5.35;;;2.90;95.10;;;;;;5035034;28;20044;-82
2020/12/29 11:03:37;;;;;;;7.85;5.53;;;2.90;95.20;;;;;;5031332;28;20375;-82
2020/12/29 11:06:11;;;;;;;6.50;5.00;;;2.90;95.10;;;;;;5026949;28;20037;-82
2020/12/29 11:08:37;;;;;;;6.47;5.05;;;2.90;95.10;;;;;;5028679;28;20195;-82
2020/12/29 11:11:03;;;;;;;6.97;5.20;;;2.90;95.10;;;;;;5026381;28;20045;-83
2020/12/29 11:13:29;;;;;;;7.57;5.82;;;2.90;95.20;;;;;;5026292;28;20053;-82
2020/12/29 11:15:55;;;;;;;7.75;4.90;;;2.90;95.20;;;;;;5026338;28;20038;-83
2020/12/29 11:18:20;;;;;;;6.55;4.63;;;3.00;95.20;;;;;;5042192;28;20045;-82
2020/12/29 11:20:50;;;;;;;6.65;4.97;;;3.00;95.20;;;;;;5029513;28;20483;-82
2020/12/29 11:23:16;;;;;;;6.00;4.20;;;3.00;95.20;;;;;;5026171;28;20045;-79
2020/12/29 11:25:42;;;;;;;5.35;4.40;;;3.10;95.30;;;;;;5027592;28;20107;-81
2020/12/29 11:28:08;;;;;;;8.10;5.40;;;3.10;95.20;;;;;;5027657;28;20055;-81
2020/12/29 11:30:33;;;;;;;6.40;5.22;;;3.10;95.20;;;;;;5025548;28;20476;-83
2020/12/29 11:32:59;;;;;;;7.07;5.13;;;3.10;95.20;;;;;;5040900;28;20045;-81
2020/12/29 11:35:25;;;;;;;6.75;5.00;;;3.10;95.20;;;;;;5023775;28;20046;-81
2020/12/29 11:37:51;;;;;;;7.60;5.70;;;3.20;95.20;;;;;;5042200;28;20049;-81
2020/12/29 11:40:16;;;;;;;5.70;4.78;;;3.20;95.20;;;;;;5029932;28;20508;-84
2020/12/29 11:42:42;;;;;;;8.20;5.43;;;3.20;95.20;;;;;;5041948;28;20065;-85
2020/12/29 11:45:08;;;;;;;6.35;5.05;;;3.20;95.20;;;;;;5008907;28;20045;-83
2020/12/29 11:47:34;;;;;;;7.05;5.47;;;3.30;95.20;;;;;;5040982;28;20127;-83
2020/12/29 11:49:59;;;;;;;6.78;5.63;;;3.30;95.20;;;;;;5040089;28;20047;-83
2020/12/29 11:52:26;;;;;;;5.22;4.38;;;3.30;95.10;;;;;;5028637;28;20498;-82
2020/12/29 11:54:52;;;;;;;7.03;5.35;;;3.30;95.20;;;;;;5025309;28;20111;-81
2020/12/29 11:57:18;;;;;;;6.22;5.28;;;3.40;95.20;;;;;;5031536;28;20050;-81
2020/12/29 11:59:44;;;;;;;7.15;5.45;;;3.40;95.20;;;;;;5042732;28;20054;-80
2020/12/29 12:02:10;;;;;;;6.10;4.82;;;3.30;95.20;;;;;;5034698;28;20466;-81
2020/12/29 12:04:35;;;;;;;6.50;5.07;;;3.30;95.20;;;;;;5025788;28;20061;-81
2020/12/29 12:07:05;;;;;;;6.32;4.85;;;3.40;95.20;;;;;;5040074;28;20053;-81
2020/12/29 12:09:32;;;;;;;6.65;4.75;;;3.40;95.20;;;;;;5026603;28;20515;-80
2020/12/29 12:11:58;;;;;;;6.65;4.90;;;3.40;95.20;;;;;;5024813;28;20440;-80
2020/12/29 12:14:24;;;;;;;5.22;4.13;;;3.40;95.20;;;;;;5027376;28;20049;-80
2020/12/29 12:16:50;;;;;;;6.28;4.68;;;3.50;95.30;;;;;;5036212;28;20508;-80
2020/12/29 12:19:15;;;;;;;7.38;5.30;;;3.50;95.20;;;;;;5025297;28;20413;-80
2020/12/29 12:21:41;;;;;;;5.95;4.57;;;3.50;95.50;;;;;;5024722;28;20053;-81
2020/12/29 12:24:07;;;;;;;6.90;4.38;;;3.50;95.30;;;;;;5035302;28;20402;-81
2020/12/29 12:26:33;;;;;;;5.13;3.90;;;3.50;95.30;;;;;;5021613;28;20053;-82
2020/12/29 12:28:58;;;;;;;7.68;4.70;;;3.60;95.30;;;;;;5024881;28;20053;-80
2020/12/29 12:31:24;;;;;;;5.90;4.75;;;3.60;95.30;;;;;;5021102;28;20410;-81
2020/12/29 12:33:50;;;;;;;6.85;4.85;;;3.50;95.30;;;;;;5040374;28;20074;-82
2020/12/29 12:36:17;;;;;;;5.43;4.22;;;3.70;95.30;;;;;;5023565;28;20041;-81
2020/12/29 12:38:44;;;;;;;5.88;4.10;;;3.70;95.20;;;;;;5023384;28;20402;-82
2020/12/29 12:41:10;;;;;;;5.93;4.35;;;3.70;95.10;;;;;;5024365;28;20523;-83
2020/12/29 12:43:37;;;;;;;6.40;4.60;;;3.70;95.20;;;;;;5025689;28;20052;-84
2020/12/29 12:46:03;;;;;;;6.43;4.82;;;3.70;95.30;;;;;;5032344;28;20060;-82
2020/12/29 12:48:29;;;;;;;6.05;4.45;;;3.70;95.30;;;;;;5023622;28;20060;-81
2020/12/29 12:50:56;;;;;;;6.20;4.57;;;3.80;95.40;;;;;;5022991;28;20470;-81